Saint Albert, Canada
Current Conditions -  °F | °C
As of 8:00 PM on Friday 19 Dec 2014 (Local Time) from CYXD Reporting Station
Overcast Overcast  
Wind Chill: 17°   Ceiling: 4700
Heat Index: 23°   Visibility: 6mi
Dew Point: 18°   Wind: 5mph
Humidity: 80%   Direction: 260°W
Pressure: 29.68"   Gusts: NA
Location:  53.63°N, 113.63°W
Report Text: CYXD 200300Z AUTO 26004KT 6SM OVC047 M05/M08 A2968 RMK SLP093
Loading
Personal Weather Stations






























Interactive Weather Map New forecast layout! Learn more

10-Day Weather Forecast

Advertisements
Track Severe Weather on mobile